Tipton, Kansas
Current Conditions -  °F | °C
As of 6:53 PM on Saturday 25 Oct 2014 (Local Time) from KRSL Reporting Station
Clear Clear  
Wind Chill: 73°   Ceiling: Unl
Heat Index: 73°   Visibility: 10mi
Dew Point: 52°   Wind: 10mph
Humidity: 48%   Direction: 140°SE
Pressure: 29.93"   Gusts: NA
Location:  39.34°N, 98.47°W
Report Text: KRSL 252353Z AUTO 14009KT 10SM CLR 23/11 A2993 RMK AO2 SLP130 T02280111 10311 20228 58018
Loading
Personal Weather Stations






























Interactive Weather Map
Tropical Storm Tracking
New forecast layout! Learn more

10-Day Weather Forecast

Advertisements
Track Severe Weather on mobile